Weather observations for the past three days for
Owatonna Degner Regional Airport
Imperial (Metric)
Date Time (cdt) Wind (mph) Vis. (mi.) Weather Sky Cond. Temperature (ºF) Relative Humidity Wind Chill (°F) Heat Index (°F) Pressure Precipitation (in)
Air Dwpt 6 hour altimeter (in) sea level (mb) 1 hr 3 hr 6 hr
Max. Min.
07 18:35 Calm 0.00 NULL NULL 58.6 17.1 20% 0 0.0
07 18:15 NW 9 10.00 Fair CLR 58.5 17.4 20% 29.8 0.0
07 17:55 NW 8 10.00 Fair CLR 58.3 17.8 20% 29.81 0.0
07 17:35 W 9 G 20 10.00 Fair CLR 58.5 15.8 19% 29.81 0.0
07 17:15 NW 13 G 22 10.00 Fair CLR 58.3 16.7 20% 29.81 0.0
07 16:55 NW 9 10.00 Fair CLR 58.6 17.6 20% 29.82 0.0
07 16:35 W 12 10.00 Fair CLR 58.8 17.1 19% 29.82 0.0
07 16:15 W 10 G 20 10.00 Fair CLR 56.8 16.9 21% 29.82 0.0
07 15:55 Vrbl 7 10.00 Fair CLR 56.5 18.5 23% 29.82 0.0
07 15:35 NW 9 10.00 Fair CLR 57 17.6 21% 29.83 0.0
07 15:15 NW 15 G 23 10.00 Fair CLR 57.4 18.7 22% 29.83 0.0
07 14:55 N 10 G 22 10.00 Fair CLR 55.8 19 24% 29.84 0.0
07 14:35 W 12 G 18 10.00 Fair CLR 55.8 18.5 23% 29.84 0.0
07 14:15 NW 15 G 21 10.00 Fair CLR 56.1 19.4 24% 29.84 0.0
07 13:55 NW 13 G 20 10.00 Fair CLR 54.3 18.5 24% 29.85 0.0
07 13:35 NW 8 G 17 10.00 Fair CLR 53.6 19.4 26% 29.85 0.0
07 13:15 NW 9 G 20 10.00 Fair CLR 54.3 22.1 28% 29.85 0.0
07 12:55 NW 8 10.00 Fair CLR 52.7 19.4 27% 29.86 0.0
07 12:35 NW 9 G 17 10.00 Fair CLR 52.9 19.9 27% 29.86 0.0
07 12:15 NW 12 G 20 10.00 Fair CLR 51.8 20.1 29% 29.87 0.0
07 11:55 NW 9 10.00 Fair CLR 52.2 21.6 30% 29.87 0.0
07 11:35 Vrbl 7 10.00 Fair CLR 50 18.9 29% 48 29.88 0.0
07 11:15 N 10 10.00 Fair CLR 50.2 20.5 31% 29.88 0.0
07 10:55 NE 9 10.00 Fair CLR 50 19.4 30% 47 29.88 0.0
07 10:35 N 5 10.00 Fair CLR 48.9 21.2 33% 48 29.88 0.0
07 10:15 NW 7 10.00 Fair CLR 48.2 20.7 34% 46 29.88 0.0
07 09:55 Vrbl 3 10.00 Fair CLR 47.8 22.5 37% 29.88 0.0
07 09:35 NW 6 10.00 Fair CLR 47.8 25.7 42% 46 29.89 0.0
07 09:15 N 5 10.00 Fair CLR 46.2 27.3 48% 45 29.89 0.0
07 08:55 NW 3 10.00 Partly Cloudy SCT075 SCT090 44.8 26.4 49% 29.9 0.0
07 08:35 N 3 10.00 Overcast FEW060 OVC075 42.8 29.7 60% 29.9 0.0
07 08:15 Calm 8.00 Overcast FEW055 OVC070 43 30.4 61% 29.9 0.0
07 07:55 Calm 9.00 Overcast OVC070 42.3 29.5 61% 29.9 0.0
07 07:35 Calm 9.00 Overcast BKN070 OVC095 38.1 31.1 76% 29.9 0.0
07 07:15 Calm 10.00 Overcast BKN060 BKN080 OVC095 35.1 30.6 84% 29.9 0.0
07 06:55 Calm 10.00 Overcast BKN060 OVC080 34.3 28.2 78% 29.9 0.0
07 06:35 Calm 10.00 Overcast FEW050 OVC065 33.1 28.2 82% 29.9 0.0
07 06:15 Calm 10.00 Overcast BKN060 OVC075 32.9 28.2 83% 29.9 0.0
07 05:55 Calm 10.00 Overcast BKN070 OVC090 33.6 27.3 78% 29.9 0.0
07 05:35 Calm 10.00 Overcast OVC080 33.3 26.6 77% 29.91 0.0
07 05:15 Calm 10.00 Overcast OVC085 34 27.3 77% 29.91 0.0
07 04:55 SE 3 10.00 Overcast SCT080 OVC100 33.1 27.3 79% 29.9 0.0
07 04:35 Calm 10.00 Overcast FEW090 OVC110 32.4 26.8 80% 29.91 0.0
07 04:15 SE 3 10.00 Mostly Cloudy BKN110 30 26.2 86% 29.91 0.0
07 03:55 Calm 10.00 A Few Clouds FEW100 30.9 24.4 77% 29.92 0.0
07 03:35 Calm 10.00 Fair CLR 29.7 24.1 80% 29.92 0.0
07 03:15 S 8 10.00 Fair CLR 32.9 25.2 73% 27 29.92 0.0
07 02:55 Calm 10.00 Fair CLR 33.4 25.7 73% 29.92 0.0
07 02:35 Calm 10.00 A Few Clouds FEW095 33.3 26.1 75% 29.93 0.0
07 02:15 Calm 10.00 Mostly Cloudy FEW075 BKN110 34 26.6 74% 29.93 0.0
07 01:55 Calm 10.00 Mostly Cloudy FEW060 BKN080 BKN110 34.7 27.5 75% 29.94 0.0
07 01:35 Calm 10.00 Overcast FEW050 SCT060 BKN080 OVC090 36.9 26.4 66% 29.95 0.0
07 01:15 SE 3 10.00 Overcast BKN070 OVC085 33.1 24.8 72% 29.95 0.0
07 00:55 S 3 9.00 Overcast BKN070 OVC095 33.3 28.2 82% 29.95 0.0
07 00:35 SE 3 9.00 Overcast SCT075 OVC100 32.2 27.7 83% 29.95 0.0
07 00:15 Calm 9.00 Overcast BKN075 OVC100 30.6 26.2 84% 29.95 0.0
06 23:55 Calm 9.00 Overcast SCT075 OVC095 32.4 26.6 79% 29.95 0.0
06 23:35 Calm 9.00 Mostly Cloudy BKN095 29.8 25.9 85% 29.95 0.0
06 23:15 SE 3 9.00 Fair CLR 32 25.7 78% 29.96 0.0
06 22:55 Calm 10.00 Fair CLR 34.7 25.2 68% 29.96 0.0
06 22:35 Calm 9.00 Fair CLR 34.7 24.4 66% 29.97 0.0
06 22:15 SE 3 10.00 Fair CLR 35.2 25.2 67% 29.97 0.0
06 21:55 Calm 10.00 Fair CLR 32.9 23.7 69% 29.97 0.0
06 21:35 Calm 10.00 Fair CLR 37.6 22.3 54% 29.97 0.0
06 21:15 Calm 10.00 Fair CLR 37.8 22.1 53% 29.98 0.0
06 20:55 N 3 9.00 Fair CLR 37.2 21.7 54% 29.97 0.0
06 20:35 N 6 10.00 Fair CLR 39.2 22.6 52% 36 29.97 0.0
06 20:15 NW 7 9.00 Fair CLR 40.5 23.2 50% 36 29.97 0.0
06 19:55 N 9 9.00 Fair CLR 43 23 45% 38 29.97 0.0
06 19:35 NW 12 10.00 Fair CLR 45 21.7 40% 40 29.97 0.0
06 19:15 NW 12 G 21 10.00 Fair CLR 45.3 23 41% 40 29.97 0.0
06 18:55 W 14 10.00 A Few Clouds FEW055 46.6 22.1 38% 41 29.97 0.0
06 18:35 W 13 G 23 10.00 Partly Cloudy SCT055 47.1 22.3 37% 42 29.97 0.0
06 18:15 NW 20 G 24 10.00 Mostly Cloudy BKN060 46.6 22.3 38% 40 29.97 0.0
06 17:55 W 14 G 25 10.00 Mostly Cloudy BKN060 46 22.1 39% 40 29.98 0.0
06 17:35 NW 16 G 24 10.00 Mostly Cloudy BKN060 47.8 22.3 36% 42 29.98 0.0
06 17:15 W 15 10.00 Mostly Cloudy BKN055 48.6 23.5 37% 43 29.98 0.0
06 16:55 NW 20 G 25 10.00 Mostly Cloudy BKN055 45.7 22.5 40% 39 29.98 0.0
06 16:35 W 17 G 23 10.00 Mostly Cloudy BKN055 46.8 22.8 39% 40 29.98 0.0
06 16:15 W 18 G 25 10.00 Overcast OVC050 48.2 23.4 38% 42 29.99 0.0
06 15:55 W 13 G 24 10.00 Mostly Cloudy BKN055 46.2 23.2 40% 41 30 0.0
06 15:35 W 16 G 23 10.00 Overcast OVC050 44.4 23 43% 38 30.01 0.0
06 15:15 W 15 9.00 Overcast OVC050 44.4 23.7 44% 38 30.01 0.0
06 14:55 W 14 G 21 10.00 Overcast OVC049 43.9 23.5 45% 38 30.01 0.0
06 14:35 W 13 10.00 Overcast BKN047 OVC055 43.3 23.5 46% 37 30.01 0.0
06 14:15 W 14 10.00 Overcast OVC045 42.4 23 46% 36 30.02 0.0
06 13:55 NW 13 10.00 Overcast OVC049 42.1 23 47% 36 30.02 0.0
06 13:35 W 16 G 21 10.00 Overcast OVC046 41.5 22.6 47% 34 30.02 0.0
06 13:15 W 13 10.00 Overcast OVC046 41 22.5 48% 34 30.02 0.0
06 12:55 NW 10 10.00 Overcast OVC048 41.2 23.2 49% 36 30.03 0.0
06 12:35 W 15 10.00 Overcast BKN042 OVC050 40.8 23.2 49% 34 30.03 0.0
06 12:15 NW 13 10.00 Overcast BKN044 OVC055 40.6 23.2 50% 34 30.03 0.0
06 11:55 NW 14 10.00 Overcast SCT041 OVC055 40.6 23 49% 34 30.03 0.0
06 11:35 NW 14 10.00 Overcast SCT040 OVC050 40.5 23.5 51% 33 30.03 0.0
06 11:15 NW 10 10.00 Overcast OVC050 39.6 23 52% 34 30.03 0.0
06 10:55 NW 12 10.00 Overcast OVC049 38.8 23 53% 32 30.03 0.0
06 10:35 NW 9 9.00 Overcast OVC050 38.8 23.9 55% 33 30.03 0.0
06 10:15 NW 10 9.00 Overcast OVC050 38.7 25 58% 32 30.02 0.0
06 09:55 NW 10 9.00 Overcast OVC050 38.1 24.6 58% 32 30.03 0.0
06 09:35 NW 10 10.00 Overcast OVC050 37.9 24.3 58% 32 30.02 0.0
06 09:15 NW 8 9.00 Overcast OVC050 37.6 23 56% 32 30.02 0.0
06 08:55 NW 9 9.00 Overcast OVC050 37.2 23.7 58% 31 30.02 0.0
06 08:35 NW 8 9.00 Overcast OVC050 36.9 25 62% 31 30.02 0.0
06 08:15 W 6 9.00 Overcast OVC050 36.1 25.3 65% 32 30.01 0.0
06 07:55 NW 5 9.00 Overcast OVC050 35.4 25.5 67% 32 30.01 0.0
06 07:35 W 6 9.00 Overcast OVC050 34.2 26.1 72% 30 30 0.0
06 07:15 W 5 8.00 Overcast OVC050 32.9 25.3 74% 29 29.99 0.0
06 06:55 W 5 8.00 Overcast OVC050 30.9 24.4 77% 27 29.99 0.0
06 06:35 Calm 8.00 Overcast OVC050 27 22.5 83% 29.98 0.0
06 06:15 Calm 9.00 Mostly Cloudy BKN050 26.6 21.6 81% 29.96 0.0
06 05:55 Calm 10.00 A Few Clouds FEW055 26.6 21.4 81% 29.96 0.0
06 05:35 W 5 10.00 Fair CLR 25 20.8 84% 20 29.97 0.0
06 05:15 W 6 10.00 Fair CLR 25 20.7 84% 19 29.97 0.0
06 04:55 SW 6 10.00 Fair CLR 24.3 19.8 83% 18 29.96 0.0
06 04:35 Calm 10.00 Fair CLR 28 21.9 78% 29.95 0.0
06 04:15 Calm 10.00 Fair CLR 28.9 21.7 74% 29.95 0.0
06 03:55 N 3 10.00 Fair CLR 28.6 21.6 75% 29.95 0.0
06 03:35 Calm 10.00 Fair CLR 26.4 20.7 79% 29.95 0.0
06 03:15 Calm 10.00 Fair CLR 29.1 22.1 75% 29.95 0.0
06 02:55 NW 3 10.00 Fair CLR 28.8 21.9 76% 29.95 0.0
06 02:35 W 5 10.00 Fair CLR 30.9 22.6 71% 27 29.94 0.0
06 02:15 NW 6 10.00 Fair CLR 32 22.6 68% 27 29.94 0.0
06 01:55 NW 6 10.00 Fair CLR 32.4 22.6 67% 27 29.93 0.0
06 01:35 NW 8 10.00 Fair CLR 31.8 22.6 69% 25 29.93 0.0
06 01:15 NW 8 10.00 Fair CLR 33.1 22.6 65% 27 29.93 0.0
06 00:55 NW 9 10.00 Fair CLR 35.1 22.6 61% 29 29.93 0.0
06 00:35 NW 8 10.00 Fair CLR 33.4 22.5 64% 27 29.93 0.0
06 00:15 NW 8 10.00 Fair CLR 34 22.5 63% 28 29.92 0.0
05 23:55 NW 8 10.00 Fair CLR 35.1 22.8 61% 29 29.92 0.0
05 23:35 NW 7 10.00 Fair CLR 36.1 22.8 58% 31 29.92 0.0
05 23:15 NW 8 10.00 Fair CLR 36.7 22.8 57% 31 29.92 0.0
05 22:55 NW 8 10.00 Fair CLR 37.8 23 55% 32 29.91 0.0
05 22:35 NW 10 10.00 Fair CLR 39.6 23 52% 34 29.91 0.0
05 22:15 NW 13 10.00 Fair CLR 41.4 22.8 48% 35 29.9 0.0
05 21:55 NW 14 10.00 A Few Clouds FEW075 41.9 23.2 47% 35 29.9 0.0
05 21:35 NW 12 10.00 Overcast OVC075 43.5 23 44% 38 29.89 0.0
05 21:15 NW 14 10.00 Overcast OVC075 45.1 22.6 41% 39 29.88 0.0
05 20:55 NW 14 9.00 Overcast OVC080 45.5 22.3 40% 40 29.87 0.0
05 20:35 NW 15 10.00 Overcast OVC080 45.3 22.5 40% 39 29.86 0.0
05 20:15 NW 15 9.00 Overcast OVC080 46.2 21.9 38% 40 29.86 0.0
05 19:55 NW 17 10.00 Overcast OVC080 46.8 21.9 37% 40 29.85 0.0
05 19:35 NW 15 9.00 Overcast OVC080 47.3 21.9 37% 42 29.85 0.0
05 19:15 NW 15 9.00 Overcast OVC075 47.1 21.9 37% 42 29.84 0.0
05 18:55 NW 15 10.00 Overcast OVC075 48.2 22.3 36% 43 29.84 0.0
05 18:35 NW 14 10.00 Overcast OVC080 49.1 21.7 34% 44 29.84 0.0
05 18:15 NW 18 10.00 Overcast OVC080 49.6 21.6 33% 44 29.84 0.0
05 17:55 NW 17 10.00 Overcast OVC080 49.8 21.9 33% 44 29.83 0.0
05 17:35 NW 15 10.00 Overcast OVC075 49.5 22.3 34% 44 29.83 0.0
05 17:15 W 15 G 22 10.00 Overcast OVC070 49.1 21.9 34% 44 29.84 0.0
05 16:55 NW 15 10.00 Overcast BKN065 OVC080 49.5 21.9 34% 44 29.84 0.0
05 16:35 NW 17 G 24 10.00 Overcast OVC075 51.4 24.3 35% 29.84 0.0
05 16:15 NW 16 10.00 Overcast SCT065 OVC080 50.4 22.6 34% 29.84 0.0
05 15:55 NW 16 10.00 Mostly Cloudy SCT065 BKN085 50 23 35% 45 29.84 0.0
05 15:35 NW 16 10.00 Mostly Cloudy BKN085 51.1 23.9 35% 29.84 0.0
05 15:15 NW 13 10.00 Overcast FEW060 OVC080 50 22.8 34% 46 29.85 0.0
05 14:55 W 16 G 23 10.00 Overcast SCT060 OVC080 49.3 23.2 36% 44 29.85 0.0
05 14:35 W 14 10.00 Overcast SCT060 OVC080 48.7 24.8 39% 44 29.85 0.0
05 14:15 NW 13 10.00 Overcast SCT060 OVC080 48.4 23.5 38% 44 29.86 0.0
05 13:55 W 22 G 26 10.00 Overcast and Breezy BKN060 OVC080 49.5 23.4 36% 43 29.85 0.0
05 13:35 NW 13 10.00 Overcast OVC075 47.5 23.7 39% 43 29.86 0.0
05 13:15 NW 15 10.00 Overcast OVC070 47.7 24.3 40% 42 29.86 0.0
05 12:55 NW 15 G 21 10.00 Overcast OVC065 47.1 23 39% 42 29.86 0.0
05 12:35 NW 16 G 24 10.00 Overcast OVC065 47.1 21.9 37% 41 29.85 0.0
05 12:15 NW 12 10.00 Overcast BKN055 OVC070 46.4 23.7 41% 42 29.85 0.0
05 11:55 NW 15 G 21 10.00 Overcast OVC055 46 23.5 41% 40 29.86 0.0
05 11:35 NW 14 G 20 10.00 Overcast BKN055 OVC075 45.9 23.9 42% 40 29.85 0.0
05 11:15 NW 14 10.00 Overcast SCT055 OVC075 46.9 24.6 42% 42 29.86 0.0
05 10:55 NW 14 G 17 10.00 Overcast SCT055 OVC070 45.9 24.3 43% 40 29.86 0.0
05 10:35 NW 10 G 21 10.00 Overcast SCT055 OVC075 45.7 24.1 43% 41 29.86 0.0
05 10:15 NW 15 10.00 Overcast OVC070 45 23.5 43% 39 29.85 0.0
05 09:55 NW 14 10.00 Partly Cloudy SCT065 45.3 24.3 44% 40 29.85 0.0
05 09:35 NW 10 10.00 Fair CLR 44.4 24.1 45% 40 29.85 0.0
05 09:15 NW 5 10.00 Fair CLR 43.7 26.6 51% 42 29.85 0.0
05 08:55 NW 7 10.00 Fair CLR 42.3 27.7 56% 38 29.84 0.0
05 08:35 N 7 10.00 Fair CLR 41.5 27.5 58% 38 29.84 0.0
05 08:15 N 7 10.00 Fair CLR 41 28.6 61% 37 29.84 0.0
05 07:55 NW 9 10.00 Fair CLR 40.3 28.6 63% 35 29.83 0.0
05 07:35 NW 6 10.00 Fair CLR 38.8 29.1 68% 35 29.82 0.0
05 07:15 NW 3 8.00 Fair CLR 37.4 28.6 71% 29.82 0.0
05 06:35 Calm 9.00 Fair CLR 32.4 24.6 73% 29.8 0.0
05 06:15 Calm 9.00 Fair CLR 31.5 24.4 75% 29.78 0.0
05 05:55 NW 3 10.00 Fair CLR 31.5 24.4 75% 29.77 0.0
05 05:35 NW 5 10.00 Fair CLR 31.8 25.2 76% 28 29.77 0.0
05 05:15 W 7 10.00 Fair CLR 31.1 24.6 77% 25 29.77 0.0
05 04:55 W 7 10.00 Fair CLR 31.6 24.8 76% 26 29.77 0.0
05 04:35 W 7 10.00 Fair CLR 32.7 24.6 72% 27 29.77 0.0
05 04:15 W 6 10.00 Fair CLR 31.8 25 76% 27 29.76 0.0
05 03:55 W 7 10.00 Fair CLR 32.2 25 75% 26 29.75 0.0
05 03:35 W 7 10.00 Fair CLR 33.1 24.8 72% 28 29.75 0.0
05 03:15 W 7 10.00 Fair CLR 32.7 25.7 75% 27 29.74 0.0
05 02:55 W 7 10.00 Fair CLR 34.2 25.5 71% 29 29.74 0.0
05 02:35 W 7 10.00 Fair CLR 34.2 25.7 71% 29 29.73 0.0
05 02:15 W 7 10.00 Fair CLR 35.1 25.2 67% 30 29.73 0.0
05 01:55 W 7 10.00 Fair CLR 37.2 25.5 63% 32 29.74 0.0
05 01:35 W 8 10.00 Fair CLR 38.8 25.7 59% 34 29.74 0.0
05 01:15 W 9 10.00 Fair CLR 38.1 25.5 61% 32 29.74 0.0
05 00:55 W 8 10.00 Fair CLR 36.7 25.2 63% 31 29.74 0.0
05 00:35 W 8 10.00 Fair CLR 38.3 26.1 61% 33 29.73 0.0
05 00:15 W 9 10.00 Fair CLR 39.2 25.3 58% 34 29.73 0.0
04 23:55 W 8 10.00 Fair CLR 38.5 25.2 59% 33 29.73 0.0
04 23:35 W 7 10.00 Fair CLR 38.3 25.7 61% 34 29.73 0.0
04 23:15 W 7 10.00 Fair CLR 38.8 25.3 58% 34 29.73 0.0
04 22:55 W 8 10.00 Fair CLR 39.4 24.4 55% 34 29.73 0.0
04 22:35 W 8 10.00 Fair CLR 42.4 24.6 49% 38 29.73 0.0
04 22:15 NW 8 8.00 Fair CLR 42.3 25.5 52% 38 29.73 0.0
04 21:55 NW 12 10.00 Fair CLR 44.2 24.6 46% 39 29.73 0.0
04 21:35 NW 16 10.00 Fair CLR 46 24.4 43% 40 29.72 0.0
04 21:15 NW 20 10.00 Fair CLR 47.3 26.4 44% 41 29.71 0.0
04 20:55 NW 18 G 25 9.00 A Few Clouds FEW220 48 26.4 43% 42 29.69 0.0
04 20:35 NW 20 G 26 10.00 Fair CLR 48.7 26.2 42% 43 29.67 0.0
04 20:15 NW 17 10.00 Fair CLR 49.6 25.9 40% 44 29.66 0.0
04 19:55 NW 21 10.00 A Few Clouds and Breezy FEW170 50.4 26.4 39% 29.65 0.0
04 19:35 NW 24 10.00 Fair and Breezy CLR 51.1 27.5 40% 29.64 0.0
04 19:15 NW 22 G 29 10.00 Fair and Breezy CLR 52 28 40% 29.64 0.0
Date Time (cdt) Wind (mph) Vis. (mi.) Weather Sky Cond. Air Dwpt Max. Min. Relative Humidity Wind Chill (°F) Heat Index (°F) altimeter (in) sea level (mb) 1 hr 3 hr 6 hr
6 hour
Temperature (ºF) Pressure Precipitation (in)